Brownstown, MI

11:53 PM EST on November 23, 2014 (GMT -0500)
HuronWoods 1 | Change Station
CLOSE
Current Station
Personal Weather Stations
Location: Flat Rock, MI
Elevation: 591 ft
Nearby Weather Stations
Active Advisory: High Wind Watch

Elev 591 ft 42.08 °N, 83.27 °W | Updated 13 minutes ago

Mvua
Mvua
47.3 °F
Feels Like 47 °F
N
2.2
Upepo Ya mabadiliko Upepo from Kusini-kusini-Magharibi(KKMg)

Leo
High -- | Low -- °F
--% Chance of Precip.
Yesterday
High -- | Low -- °F
Precip. -- nchi
7:32 AM 5:05 PM
Waxing Crescent, 3% visible
Shinikizo 29.23 nchi
Mwangaza 10.0 meli
Clouds Utando wa mawingu 1900 ft
Ubaridi wa upepo 47 °F
Kilele cha umande 46 °F
Unyevu 97%
Rainfall 0.82 nchi
Snow Depth Not available.
UV 0 out of 12
Pollen .10 out of 12
Air Quality Not available.
Flu Activity Not available.
METAR KONZ 240434Z AUTO 13012G18KT 10SM RA OVC019 11/09 A2923 RMK AO2 P0007

More Conditions Fewer Conditions

Shinikizo 29.23 nchi
Mwangaza 10.0 meli
Clouds Utando wa mawingu 1900 ft
Ubaridi wa upepo 47 °F
Kilele cha umande 46 °F
Unyevu 97%
Rainfall 0.82 nchi
Snow Depth Not available.
UV 0 out of 12
Pollen .10 out of 12
Air Quality Not available.
Flu Activity Not available.
METAR KONZ 240434Z AUTO 13012G18KT 10SM RA OVC019 11/09 A2923 RMK AO2 P0007

More Conditions Fewer Conditions

10-Day Weather Forecast

Almanac

Astronomy

Nov. 23, 2014 Rise Set
Actual Time
Civil Twilight
Nautical Twilight
Astronomical Twilight
Moon
Length Of Visible Light
Length of Day
Tomorrow will be .
, % of the Moon is Illuminated

Today's Extremes

State Highs State Lows

Community

WunderPhotos

Upload Photos

1,773,267 photos uploaded!

WunderBlogs® & News

Nearby

Air Quality

  Air Quality AQ Index Pollutant
Not available.

Snow Depth

Station Depth Elevation

Earthquake Activity

City Distance Mag. Time & Date
Minimum magnitude displayed is 2.5.

Coastal Water Temperatures

Mahali Hali ya Hewa

Nearby Weather Stations